createdAt,value
2022-12-25T00:02:34.263Z,19.33
2022-12-25T00:07:37.888Z,19.33
2022-12-25T00:12:42.865Z,19.31
2022-12-25T00:17:46.288Z,19.32
2022-12-25T00:22:49.667Z,19.32
2022-12-25T00:27:54.459Z,19.36
2022-12-25T00:32:57.910Z,19.32
2022-12-25T00:38:01.416Z,19.28
2022-12-25T00:43:06.291Z,19.25
2022-12-25T00:48:09.736Z,19.23
2022-12-25T00:53:13.319Z,19.21
2022-12-25T00:58:18.216Z,19.20
2022-12-25T01:03:21.811Z,19.19
2022-12-25T01:08:25.623Z,19.17
2022-12-25T01:13:31.099Z,19.15
2022-12-25T01:18:34.613Z,19.12
2022-12-25T01:23:38.179Z,19.15
2022-12-25T01:28:43.352Z,19.14
2022-12-25T01:33:47.420Z,19.10
2022-12-25T01:38:51.320Z,19.12
2022-12-25T01:44:01.900Z,19.14
2022-12-25T01:49:07.154Z,19.12
2022-12-25T01:54:14.593Z,19.11
2022-12-25T01:59:21.341Z,19.10
2022-12-25T02:04:39.037Z,19.10
2022-12-25T02:09:42.840Z,19.09
2022-12-25T02:14:48.512Z,19.06
2022-12-25T02:20:29.900Z,19.06
2022-12-25T02:25:44.734Z,19.06
2022-12-25T02:30:55.071Z,19.05
2022-12-25T02:35:58.979Z,19.05
2022-12-25T02:41:06.507Z,19.03
2022-12-25T02:46:45.892Z,19.02
2022-12-25T02:52:10.375Z,19.00
2022-12-25T02:57:32.261Z,19.00
2022-12-25T03:02:54.731Z,19.03
2022-12-25T03:07:59.567Z,19.01
2022-12-25T03:13:06.393Z,19.01
2022-12-25T03:18:14.055Z,18.98
2022-12-25T03:23:39.332Z,18.99
2022-12-25T03:28:42.783Z,19.01
2022-12-25T03:34:09.676Z,18.99
2022-12-25T03:39:34.524Z,19.00
2022-12-25T03:45:00.879Z,18.98
2022-12-25T03:50:26.205Z,18.97
2022-12-25T03:55:46.859Z,18.97
2022-12-25T04:01:07.707Z,18.98
2022-12-25T04:06:30.157Z,18.96
2022-12-25T04:11:50.956Z,18.95
2022-12-25T04:17:11.843Z,18.95
2022-12-25T04:22:34.188Z,18.96
2022-12-25T04:27:55.071Z,18.96
2022-12-25T04:33:16.275Z,18.95
2022-12-25T04:38:22.467Z,18.93
2022-12-25T04:43:26.374Z,18.91
2022-12-25T04:48:32.896Z,18.93
2022-12-25T04:53:37.837Z,18.93
2022-12-25T04:58:41.791Z,18.90
2022-12-25T05:03:45.401Z,18.90
2022-12-25T05:08:50.421Z,18.93
2022-12-25T05:13:53.909Z,18.90
2022-12-25T05:18:57.586Z,18.90
2022-12-25T05:24:02.509Z,18.89
2022-12-25T05:29:06.055Z,18.90
2022-12-25T05:34:09.654Z,18.89
2022-12-25T05:39:14.532Z,18.89
2022-12-25T05:44:18.365Z,18.87
2022-12-25T05:49:21.837Z,18.87
2022-12-25T05:54:26.801Z,18.86
2022-12-25T05:59:30.881Z,18.88
2022-12-25T06:04:34.406Z,18.85
2022-12-25T06:09:39.383Z,18.84
2022-12-25T06:14:42.997Z,18.85
2022-12-25T06:19:46.504Z,18.86
2022-12-25T06:24:51.672Z,18.84
2022-12-25T06:29:55.228Z,18.86
2022-12-25T06:34:58.677Z,18.83
2022-12-25T06:40:03.584Z,18.87
2022-12-25T06:45:07.790Z,18.86
2022-12-25T06:50:11.344Z,18.87
2022-12-25T06:55:16.277Z,18.87
2022-12-25T07:00:20.316Z,18.85
2022-12-25T07:05:23.827Z,18.84
2022-12-25T07:10:28.795Z,18.84
2022-12-25T07:15:32.326Z,18.83
2022-12-25T07:20:35.877Z,18.82
2022-12-25T07:25:40.748Z,18.81
2022-12-25T07:30:44.271Z,18.81
2022-12-25T07:35:48.208Z,18.81
2022-12-25T07:40:53.125Z,18.83
2022-12-25T07:45:58.064Z,18.82
2022-12-25T07:51:03.230Z,18.87
2022-12-25T07:56:09.711Z,18.96
2022-12-25T08:01:15.273Z,18.90
2022-12-25T08:06:18.907Z,18.94
2022-12-25T08:11:24.051Z,18.90
2022-12-25T08:16:27.778Z,18.90
2022-12-25T08:21:31.268Z,19.00
2022-12-25T08:26:36.177Z,18.95
2022-12-25T08:31:45.718Z,18.97
2022-12-25T08:36:49.921Z,18.91
2022-12-25T08:41:54.860Z,18.95
2022-12-25T08:46:58.476Z,18.97
2022-12-25T08:52:02.009Z,18.99
2022-12-25T08:57:07.051Z,19.00
2022-12-25T09:02:11.539Z,18.96
2022-12-25T09:07:15.116Z,19.01
2022-12-25T09:12:20.078Z,19.02
2022-12-25T09:17:23.591Z,19.00
2022-12-25T09:22:27.184Z,19.00
2022-12-25T09:27:32.052Z,18.93
2022-12-25T09:32:35.553Z,18.91
2022-12-25T09:37:39.059Z,18.89
2022-12-25T09:42:45.402Z,18.99
2022-12-25T09:47:50.135Z,18.88
2022-12-25T09:52:57.774Z,18.90
2022-12-25T09:58:04.023Z,18.89
2022-12-25T10:03:19.122Z,18.84
2022-12-25T10:08:31.035Z,18.82
2022-12-25T10:13:48.647Z,18.78
2022-12-25T10:19:14.962Z,18.78
2022-12-25T10:24:24.953Z,18.76
2022-12-25T10:29:38.735Z,18.77
2022-12-25T10:34:43.845Z,18.72
2022-12-25T10:39:47.383Z,18.74
2022-12-25T10:44:59.792Z,18.73
2022-12-25T10:50:09.599Z,18.76
2022-12-25T10:55:14.544Z,18.80
2022-12-25T11:00:24.093Z,18.77
2022-12-25T11:05:29.462Z,18.75
2022-12-25T11:10:34.695Z,18.75
2022-12-25T11:15:41.942Z,18.73
2022-12-25T11:20:50.684Z,18.76
2022-12-25T11:25:58.334Z,18.72
2022-12-25T11:31:07.224Z,18.72
2022-12-25T11:36:17.644Z,18.72
2022-12-25T11:41:23.988Z,18.73
2022-12-25T11:46:32.390Z,18.86
2022-12-25T11:51:38.956Z,18.89
2022-12-25T11:56:42.468Z,18.90
2022-12-25T12:01:51.283Z,18.97
2022-12-25T12:06:58.098Z,19.04
2022-12-25T12:12:09.285Z,19.10
2022-12-25T12:17:15.175Z,19.09
2022-12-25T12:22:22.106Z,19.09
2022-12-25T12:27:31.012Z,19.12
2022-12-25T12:32:39.844Z,19.09
2022-12-25T12:37:43.792Z,19.27
2022-12-25T12:42:50.720Z,19.17
2022-12-25T12:47:55.780Z,19.08
2022-12-25T12:52:59.708Z,19.06
2022-12-25T12:58:05.921Z,19.07
2022-12-25T13:03:32.470Z,19.07
2022-12-25T13:08:47.858Z,19.05
2022-12-25T13:13:53.006Z,19.09
2022-12-25T13:18:58.291Z,19.03
2022-12-25T13:24:03.150Z,19.16
2022-12-25T13:29:11.454Z,19.16
2022-12-25T13:34:23.626Z,19.10
2022-12-25T13:39:27.180Z,19.14
2022-12-25T13:44:34.395Z,19.16
2022-12-25T13:49:39.268Z,19.13
2022-12-25T13:54:54.705Z,18.95
2022-12-25T13:59:58.460Z,18.92
2022-12-25T14:05:03.587Z,18.90
2022-12-25T14:10:08.269Z,18.91
2022-12-25T14:15:16.339Z,18.90
2022-12-25T14:20:26.687Z,18.93
2022-12-25T14:25:32.025Z,18.87
2022-12-25T14:30:36.266Z,18.90
2022-12-25T14:35:41.252Z,19.03
2022-12-25T14:40:45.836Z,18.98
2022-12-25T14:45:56.295Z,18.96
2022-12-25T14:51:03.462Z,18.97
2022-12-25T14:56:08.719Z,18.91
2022-12-25T15:01:21.286Z,18.96
2022-12-25T15:06:26.407Z,18.96
2022-12-25T15:11:30.348Z,18.96
2022-12-25T15:16:42.711Z,18.95
2022-12-25T15:21:48.832Z,19.04
2022-12-25T15:26:53.502Z,18.99
2022-12-25T15:31:56.949Z,18.90
2022-12-25T15:37:01.861Z,19.02
2022-12-25T15:42:14.699Z,18.84
2022-12-25T15:47:20.273Z,18.87
2022-12-25T15:52:25.250Z,18.85
2022-12-25T15:57:28.795Z,18.81
2022-12-25T16:02:32.592Z,18.87
2022-12-25T16:07:37.716Z,18.87
2022-12-25T16:12:41.276Z,18.88
2022-12-25T16:17:44.836Z,18.88
2022-12-25T16:22:49.686Z,18.86
2022-12-25T16:27:53.194Z,18.83
2022-12-25T16:32:56.699Z,18.84
2022-12-25T16:38:01.793Z,18.81
2022-12-25T16:43:05.273Z,18.83
2022-12-25T16:48:09.492Z,18.77
2022-12-25T16:53:14.355Z,18.81
2022-12-25T16:58:17.873Z,18.42
2022-12-25T17:03:21.457Z,18.39
2022-12-25T17:08:26.416Z,18.30
2022-12-25T17:13:29.908Z,18.26
2022-12-25T17:18:33.364Z,18.16
2022-12-25T17:23:39.747Z,18.08
2022-12-25T17:28:43.239Z,17.96
2022-12-25T17:33:47.071Z,17.99
2022-12-25T17:38:51.957Z,17.95
2022-12-25T17:43:55.395Z,17.89
2022-12-25T17:49:00.230Z,17.79
2022-12-25T17:54:05.207Z,17.84
2022-12-25T17:59:11.046Z,17.83
2022-12-25T18:04:14.663Z,17.87
2022-12-25T18:09:20.056Z,17.89
2022-12-25T18:14:23.484Z,17.92
2022-12-25T18:19:27.094Z,17.92
2022-12-25T18:24:31.985Z,17.86
2022-12-25T18:29:35.423Z,17.86
2022-12-25T18:34:38.862Z,17.87
2022-12-25T18:39:43.776Z,17.87
2022-12-25T18:44:47.310Z,17.77
2022-12-25T18:49:50.859Z,18.18
2022-12-25T18:54:55.763Z,17.79
2022-12-25T18:59:59.280Z,17.51
2022-12-25T19:05:02.801Z,18.12
2022-12-25T19:10:10.498Z,17.83
2022-12-25T19:15:14.196Z,17.82
2022-12-25T19:20:17.913Z,17.82
2022-12-25T19:25:22.808Z,17.75
2022-12-25T19:30:26.281Z,17.80
2022-12-25T19:35:29.839Z,17.93
2022-12-25T19:40:38.621Z,17.93
2022-12-25T19:45:42.138Z,17.23
2022-12-25T19:50:45.661Z,17.12
2022-12-25T19:55:50.777Z,17.17
2022-12-25T20:01:00.876Z,16.92
2022-12-25T20:06:04.682Z,16.98
2022-12-25T20:11:09.607Z,17.15
2022-12-25T20:16:13.383Z,16.92
2022-12-25T20:21:18.499Z,17.09
2022-12-25T20:26:25.356Z,17.55
2022-12-25T20:31:30.139Z,17.65
2022-12-25T20:36:37.129Z,17.77
2022-12-25T20:41:43.092Z,17.73
2022-12-25T20:46:46.917Z,17.68
2022-12-25T20:51:50.520Z,17.66
2022-12-25T20:56:55.468Z,17.70
2022-12-25T21:01:59.416Z,17.74
2022-12-25T21:07:03.192Z,17.71
2022-12-25T21:12:09.066Z,17.70
2022-12-25T21:17:12.588Z,17.75
2022-12-25T21:22:16.126Z,17.77
2022-12-25T21:27:21.143Z,17.76
2022-12-25T21:32:41.909Z,17.62
2022-12-25T21:37:45.401Z,17.62
2022-12-25T21:42:50.377Z,17.74
2022-12-25T21:48:01.776Z,17.88
2022-12-25T21:53:06.845Z,18.34
2022-12-25T21:58:11.748Z,18.46
2022-12-25T22:03:15.333Z,18.47
2022-12-25T22:08:18.909Z,18.50
2022-12-25T22:13:37.597Z,18.61
2022-12-25T22:18:58.440Z,18.61
2022-12-25T22:24:01.971Z,18.66
2022-12-25T22:29:08.443Z,18.79
2022-12-25T22:34:11.981Z,18.77
2022-12-25T22:39:15.419Z,18.81
2022-12-25T22:44:20.278Z,18.80
2022-12-25T22:49:23.709Z,18.76
2022-12-25T22:54:27.390Z,18.84
2022-12-25T22:59:33.046Z,18.74
2022-12-25T23:04:36.779Z,18.70
2022-12-25T23:09:40.365Z,18.70
2022-12-25T23:14:47.157Z,18.71
2022-12-25T23:20:08.097Z,18.67
2022-12-25T23:25:33.501Z,18.67
2022-12-25T23:30:38.490Z,18.66
2022-12-25T23:35:41.983Z,18.66
2022-12-25T23:40:45.428Z,18.68
2022-12-25T23:45:50.352Z,18.66
2022-12-25T23:50:53.870Z,18.69
2022-12-25T23:55:57.808Z,18.69
